sensor_id;sensor_type;location;lat;lon;timestamp;pressure;altitude;pressure_sealevel;temperature;humidity
9676;BME280;4876;42.656;23.292;2023-01-13T00:00:00;94655.19;;;3.30;99.68
9676;BME280;4876;42.656;23.292;2023-01-13T00:02:27;94660.09;;;3.26;98.98
9676;BME280;4876;42.656;23.292;2023-01-13T00:04:54;94652.03;;;3.17;98.94
9676;BME280;4876;42.656;23.292;2023-01-13T00:07:21;94661.38;;;3.13;99.74
9676;BME280;4876;42.656;23.292;2023-01-13T00:09:48;94662.66;;;3.06;100.00
9676;BME280;4876;42.656;23.292;2023-01-13T00:12:14;94668.63;;;3.11;99.59
9676;BME280;4876;42.656;23.292;2023-01-13T00:14:43;94669.94;;;3.14;99.34
9676;BME280;4876;42.656;23.292;2023-01-13T00:17:09;94666.59;;;3.18;99.98
9676;BME280;4876;42.656;23.292;2023-01-13T00:19:36;94667.38;;;3.19;99.04
9676;BME280;4876;42.656;23.292;2023-01-13T00:22:03;94662.72;;;3.31;98.62
9676;BME280;4876;42.656;23.292;2023-01-13T00:24:30;94667.63;;;3.22;98.34
9676;BME280;4876;42.656;23.292;2023-01-13T00:26:57;94643.09;;;2.98;98.67
9676;BME280;4876;42.656;23.292;2023-01-13T00:29:24;94662.66;;;3.11;98.50
9676;BME280;4876;42.656;23.292;2023-01-13T00:31:52;94660.06;;;3.16;97.96
9676;BME280;4876;42.656;23.292;2023-01-13T00:34:20;94660.38;;;3.35;97.54
9676;BME280;4876;42.656;23.292;2023-01-13T00:36:46;94660.66;;;3.33;95.63
9676;BME280;4876;42.656;23.292;2023-01-13T00:39:13;94664.00;;;3.29;95.99
9676;BME280;4876;42.656;23.292;2023-01-13T00:41:40;94664.00;;;3.29;95.91
9676;BME280;4876;42.656;23.292;2023-01-13T00:44:24;94658.88;;;3.49;95.72
9676;BME280;4876;42.656;23.292;2023-01-13T00:46:52;94657.81;;;3.45;94.97
9676;BME280;4876;42.656;23.292;2023-01-13T00:49:19;94658.34;;;3.42;94.46
9676;BME280;4876;42.656;23.292;2023-01-13T00:51:46;94654.69;;;3.43;94.13
9676;BME280;4876;42.656;23.292;2023-01-13T00:54:13;94654.72;;;3.48;94.50
9676;BME280;4876;42.656;23.292;2023-01-13T00:56:40;94649.75;;;3.46;93.89
9676;BME280;4876;42.656;23.292;2023-01-13T00:59:08;94644.78;;;3.30;94.44
9676;BME280;4876;42.656;23.292;2023-01-13T01:01:35;94654.84;;;3.06;95.96
9676;BME280;4876;42.656;23.292;2023-01-13T01:04:03;94651.47;;;3.10;96.87
9676;BME280;4876;42.656;23.292;2023-01-13T01:06:30;94643.94;;;3.09;96.91
9676;BME280;4876;42.656;23.292;2023-01-13T01:08:57;94643.69;;;3.15;96.69
9676;BME280;4876;42.656;23.292;2023-01-13T01:11:26;94649.91;;;3.09;97.36
9676;BME280;4876;42.656;23.292;2023-01-13T01:13:53;94642.88;;;3.10;96.82
9676;BME280;4876;42.656;23.292;2023-01-13T01:16:22;94647.38;;;3.24;95.78
9676;BME280;4876;42.656;23.292;2023-01-13T01:18:51;94638.00;;;3.18;95.17
9676;BME280;4876;42.656;23.292;2023-01-13T01:21:20;94645.25;;;3.16;95.60
9676;BME280;4876;42.656;23.292;2023-01-13T01:23:47;94641.34;;;3.14;95.70
9676;BME280;4876;42.656;23.292;2023-01-13T01:26:16;94625.72;;;3.04;95.83
9676;BME280;4876;42.656;23.292;2023-01-13T01:28:43;94622.91;;;3.05;95.54
9676;BME280;4876;42.656;23.292;2023-01-13T01:31:14;94627.06;;;3.16;94.89
9676;BME280;4876;42.656;23.292;2023-01-13T01:33:41;94635.38;;;3.13;95.53
9676;BME280;4876;42.656;23.292;2023-01-13T01:36:10;94641.13;;;3.26;95.89
9676;BME280;4876;42.656;23.292;2023-01-13T01:38:39;94633.63;;;3.39;94.86
9676;BME280;4876;42.656;23.292;2023-01-13T01:41:06;94626.09;;;3.38;94.24
9676;BME280;4876;42.656;23.292;2023-01-13T01:43:46;94598.53;;;3.37;93.21
9676;BME280;4876;42.656;23.292;2023-01-13T01:46:29;94627.13;;;3.32;93.73
9676;BME280;4876;42.656;23.292;2023-01-13T01:48:59;94628.19;;;3.36;94.15
9676;BME280;4876;42.656;23.292;2023-01-13T01:51:30;94617.75;;;3.31;94.06
9676;BME280;4876;42.656;23.292;2023-01-13T01:54:00;94619.31;;;3.27;94.11
9676;BME280;4876;42.656;23.292;2023-01-13T01:56:28;94628.16;;;3.31;95.12
9676;BME280;4876;42.656;23.292;2023-01-13T01:58:55;94622.94;;;3.26;94.29
9676;BME280;4876;42.656;23.292;2023-01-13T02:01:22;94621.91;;;3.32;94.91
9676;BME280;4876;42.656;23.292;2023-01-13T02:03:53;94614.59;;;3.13;94.64
9676;BME280;4876;42.656;23.292;2023-01-13T02:06:24;94621.63;;;3.18;95.46
9676;BME280;4876;42.656;23.292;2023-01-13T02:08:51;94606.28;;;3.11;95.25
9676;BME280;4876;42.656;23.292;2023-01-13T02:11:28;94594.28;;;3.00;95.54
9676;BME280;4876;42.656;23.292;2023-01-13T02:14:13;94619.06;;;3.23;95.17
9676;BME280;4876;42.656;23.292;2023-01-13T02:16:44;94623.97;;;3.19;94.66
9676;BME280;4876;42.656;23.292;2023-01-13T02:19:28;94610.69;;;3.16;94.57
9676;BME280;4876;42.656;23.292;2023-01-13T02:25:15;94618.22;;;3.12;95.72
9676;BME280;4876;42.656;23.292;2023-01-13T02:27:56;94617.22;;;3.18;94.90
9676;BME280;4876;42.656;23.292;2023-01-13T02:30:31;94615.06;;;3.00;96.76
9676;BME280;4876;42.656;23.292;2023-01-13T02:33:28;94613.00;;;3.07;96.93
9676;BME280;4876;42.656;23.292;2023-01-13T02:36:01;94616.69;;;3.11;95.71
9676;BME280;4876;42.656;23.292;2023-01-13T02:38:50;94615.91;;;3.11;96.03
9676;BME280;4876;42.656;23.292;2023-01-13T02:41:23;94613.00;;;3.02;96.17
9676;BME280;4876;42.656;23.292;2023-01-13T02:44:09;94621.63;;;3.13;96.07
9676;BME280;4876;42.656;23.292;2023-01-13T02:46:48;94625.78;;;3.19;95.84
9676;BME280;4876;42.656;23.292;2023-01-13T02:49:20;94625.50;;;3.15;95.13
9676;BME280;4876;42.656;23.292;2023-01-13T02:51:51;94612.00;;;3.18;95.23
9676;BME280;4876;42.656;23.292;2023-01-13T02:54:21;94622.91;;;3.05;95.82
9676;BME280;4876;42.656;23.292;2023-01-13T02:56:53;94620.88;;;3.28;95.31
9676;BME280;4876;42.656;23.292;2023-01-13T02:59:21;94619.81;;;3.18;95.66
9676;BME280;4876;42.656;23.292;2023-01-13T03:01:53;94609.94;;;3.20;95.50
9676;BME280;4876;42.656;23.292;2023-01-13T03:04:47;94616.72;;;3.32;94.66
9676;BME280;4876;42.656;23.292;2023-01-13T03:07:25;94614.63;;;3.18;94.79
9676;BME280;4876;42.656;23.292;2023-01-13T03:10:00;94614.38;;;3.30;94.81
9676;BME280;4876;42.656;23.292;2023-01-13T03:12:37;94604.69;;;3.10;94.61
9676;BME280;4876;42.656;23.292;2023-01-13T03:15:16;94618.28;;;3.33;94.40
9676;BME280;4876;42.656;23.292;2023-01-13T03:17:54;94617.69;;;3.05;95.31
9676;BME280;4876;42.656;23.292;2023-01-13T03:20:25;94613.56;;;3.19;96.09
9676;BME280;4876;42.656;23.292;2023-01-13T03:22:59;94612.31;;;3.32;95.14
9676;BME280;4876;42.656;23.292;2023-01-13T03:25:31;94624.53;;;3.37;93.99
9676;BME280;4876;42.656;23.292;2023-01-13T03:28:03;94615.16;;;3.41;93.36
9676;BME280;4876;42.656;23.292;2023-01-13T03:30:35;94618.31;;;3.53;93.11
9676;BME280;4876;42.656;23.292;2023-01-13T03:33:09;94630.78;;;3.51;93.10
9676;BME280;4876;42.656;23.292;2023-01-13T03:35:39;94626.59;;;3.35;93.62
9676;BME280;4876;42.656;23.292;2023-01-13T03:38:10;94616.44;;;3.28;93.72
9676;BME280;4876;42.656;23.292;2023-01-13T03:40:44;94627.38;;;3.35;93.40
9676;BME280;4876;42.656;23.292;2023-01-13T03:43:18;94630.25;;;3.39;93.41
9676;BME280;4876;42.656;23.292;2023-01-13T03:46:06;94608.41;;;3.30;93.07
9676;BME280;4876;42.656;23.292;2023-01-13T03:48:41;94628.47;;;3.49;92.61
9676;BME280;4876;42.656;23.292;2023-01-13T03:51:12;94608.63;;;3.18;93.36
9676;BME280;4876;42.656;23.292;2023-01-13T03:53:45;94636.25;;;3.44;93.37
9676;BME280;4876;42.656;23.292;2023-01-13T03:56:17;94626.63;;;3.60;92.80
9676;BME280;4876;42.656;23.292;2023-01-13T03:58:48;94633.38;;;3.46;92.75
9676;BME280;4876;42.656;23.292;2023-01-13T04:01:19;94628.19;;;3.36;93.32
9676;BME280;4876;42.656;23.292;2023-01-13T04:03:52;94632.34;;;3.37;94.02
9676;BME280;4876;42.656;23.292;2023-01-13T04:06:26;94636.75;;;3.46;93.83
9676;BME280;4876;42.656;23.292;2023-01-13T04:09:02;94627.94;;;3.53;92.82
9676;BME280;4876;42.656;23.292;2023-01-13T04:11:34;94634.41;;;3.45;93.27
9676;BME280;4876;42.656;23.292;2023-01-13T04:14:05;94627.13;;;3.37;92.98
9676;BME280;4876;42.656;23.292;2023-01-13T04:16:35;94634.97;;;3.57;92.96
9676;BME280;4876;42.656;23.292;2023-01-13T04:19:06;94640.69;;;3.54;92.57
9676;BME280;4876;42.656;23.292;2023-01-13T04:21:33;94642.22;;;3.45;92.82
9676;BME280;4876;42.656;23.292;2023-01-13T04:24:01;94632.84;;;3.34;93.34
9676;BME280;4876;42.656;23.292;2023-01-13T04:26:27;94642.22;;;3.50;93.14
9676;BME280;4876;42.656;23.292;2023-01-13T04:28:54;94645.34;;;3.52;93.04
9676;BME280;4876;42.656;23.292;2023-01-13T04:31:21;94642.72;;;3.47;93.29
9676;BME280;4876;42.656;23.292;2023-01-13T04:33:48;94649.25;;;3.49;92.79
9676;BME280;4876;42.656;23.292;2023-01-13T04:36:16;94647.94;;;3.37;93.85
9676;BME280;4876;42.656;23.292;2023-01-13T04:38:44;94651.56;;;3.36;93.82
9676;BME280;4876;42.656;23.292;2023-01-13T04:41:10;94646.34;;;3.41;94.69
9676;BME280;4876;42.656;23.292;2023-01-13T04:43:37;94643.75;;;3.31;94.84
9676;BME280;4876;42.656;23.292;2023-01-13T04:46:04;94652.03;;;3.28;94.63
9676;BME280;4876;42.656;23.292;2023-01-13T04:48:31;94650.50;;;3.32;94.38
9676;BME280;4876;42.656;23.292;2023-01-13T04:50:58;94646.34;;;3.31;94.87
9676;BME280;4876;42.656;23.292;2023-01-13T04:53:26;94646.59;;;3.29;94.48
9676;BME280;4876;42.656;23.292;2023-01-13T04:55:53;94649.44;;;3.28;95.28
9676;BME280;4876;42.656;23.292;2023-01-13T04:58:19;94648.94;;;3.31;94.77
9676;BME280;4876;42.656;23.292;2023-01-13T05:00:46;94653.88;;;3.27;94.86
9676;BME280;4876;42.656;23.292;2023-01-13T05:03:15;94654.94;;;3.36;94.24
9676;BME280;4876;42.656;23.292;2023-01-13T05:05:43;94658.81;;;3.23;94.65
9676;BME280;4876;42.656;23.292;2023-01-13T05:08:10;94661.16;;;3.30;94.80
9676;BME280;4876;42.656;23.292;2023-01-13T05:10:38;94648.16;;;3.25;94.82
9676;BME280;4876;42.656;23.292;2023-01-13T05:13:08;94649.22;;;3.39;94.58
9676;BME280;4876;42.656;23.292;2023-01-13T05:15:52;94664.56;;;3.36;94.97
9676;BME280;4876;42.656;23.292;2023-01-13T05:18:42;94653.88;;;3.32;94.55
9676;BME280;4876;42.656;23.292;2023-01-13T05:21:08;94656.25;;;3.44;94.37
9676;BME280;4876;42.656;23.292;2023-01-13T05:23:55;94656.50;;;3.32;94.17
9676;BME280;4876;42.656;23.292;2023-01-13T05:26:40;94659.88;;;3.33;95.34
9676;BME280;4876;42.656;23.292;2023-01-13T05:29:07;94661.91;;;3.20;95.25
9676;BME280;4876;42.656;23.292;2023-01-13T05:31:34;94656.44;;;3.12;96.80
9676;BME280;4876;42.656;23.292;2023-01-13T05:34:00;94666.06;;;3.21;97.33
9676;BME280;4876;42.656;23.292;2023-01-13T05:36:27;94659.59;;;3.24;96.24
9676;BME280;4876;42.656;23.292;2023-01-13T05:38:54;94662.16;;;3.19;96.01
9676;BME280;4876;42.656;23.292;2023-01-13T05:41:21;94660.63;;;3.23;96.78
9676;BME280;4876;42.656;23.292;2023-01-13T05:44:07;94657.78;;;3.24;96.94
9676;BME280;4876;42.656;23.292;2023-01-13T05:46:33;94660.09;;;3.26;96.84
9676;BME280;4876;42.656;23.292;2023-01-13T05:49:00;94658.47;;;3.10;97.71
9676;BME280;4876;42.656;23.292;2023-01-13T05:51:27;94659.28;;;3.15;97.36
9676;BME280;4876;42.656;23.292;2023-01-13T05:53:54;94662.97;;;3.24;97.50
9676;BME280;4876;42.656;23.292;2023-01-13T05:56:20;94664.25;;;3.22;97.32
9676;BME280;4876;42.656;23.292;2023-01-13T05:58:47;94672.38;;;3.36;96.43
9676;BME280;4876;42.656;23.292;2023-01-13T06:01:15;94668.41;;;3.18;96.37
9676;BME280;4876;42.656;23.292;2023-01-13T06:03:42;94674.94;;;3.31;96.33
9676;BME280;4876;42.656;23.292;2023-01-13T06:06:09;94676.47;;;3.27;96.73
9676;BME280;4876;42.656;23.292;2023-01-13T06:08:35;94677.53;;;3.31;96.62
9676;BME280;4876;42.656;23.292;2023-01-13T06:11:02;94680.38;;;3.24;96.60
9676;BME280;4876;42.656;23.292;2023-01-13T06:13:29;94685.91;;;3.43;96.97
9676;BME280;4876;42.656;23.292;2023-01-13T06:15:57;94685.34;;;3.36;96.35
9676;BME280;4876;42.656;23.292;2023-01-13T06:18:26;94691.63;;;3.50;96.00
9676;BME280;4876;42.656;23.292;2023-01-13T06:20:53;94690.09;;;3.54;94.86
9676;BME280;4876;42.656;23.292;2023-01-13T06:23:21;94694.25;;;3.65;99.99
9676;BME280;4876;42.656;23.292;2023-01-13T06:25:51;94697.13;;;3.64;100.00
9676;BME280;4876;42.656;23.292;2023-01-13T06:28:22;94699.47;;;3.65;100.00
9676;BME280;4876;42.656;23.292;2023-01-13T06:30:51;94698.19;;;3.83;97.56
9676;BME280;4876;42.656;23.292;2023-01-13T06:33:21;94701.56;;;3.78;94.36
9676;BME280;4876;42.656;23.292;2023-01-13T06:36:01;94697.66;;;3.71;93.80
9676;BME280;4876;42.656;23.292;2023-01-13T06:38:32;94703.09;;;3.64;94.68
9676;BME280;4876;42.656;23.292;2023-01-13T06:41:02;94703.63;;;3.66;94.71
9676;BME280;4876;42.656;23.292;2023-01-13T06:43:29;94697.41;;;3.67;94.17
9676;BME280;4876;42.656;23.292;2023-01-13T06:45:55;94697.63;;;3.50;94.87
9676;BME280;4876;42.656;23.292;2023-01-13T06:48:25;94699.44;;;3.55;94.77
9676;BME280;4876;42.656;23.292;2023-01-13T06:50:55;94695.53;;;3.58;94.50
9676;BME280;4876;42.656;23.292;2023-01-13T06:53:22;94687.97;;;3.36;95.52
9676;BME280;4876;42.656;23.292;2023-01-13T06:55:48;94698.34;;;3.41;95.77
9676;BME280;4876;42.656;23.292;2023-01-13T06:58:15;94690.78;;;3.34;96.72
9676;BME280;4876;42.656;23.292;2023-01-13T07:00:42;94697.06;;;3.38;96.70
9676;BME280;4876;42.656;23.292;2023-01-13T07:03:15;94698.91;;;3.53;96.16
9676;BME280;4876;42.656;23.292;2023-01-13T07:05:50;94691.13;;;3.63;96.09
9676;BME280;4876;42.656;23.292;2023-01-13T07:08:18;94688.53;;;3.63;94.45
9676;BME280;4876;42.656;23.292;2023-01-13T07:10:46;94692.19;;;3.72;94.60
9676;BME280;4876;42.656;23.292;2023-01-13T07:13:12;94700.00;;;3.67;94.14
9676;BME280;4876;42.656;23.292;2023-01-13T07:15:58;94694.53;;;3.69;94.33
9676;BME280;4876;42.656;23.292;2023-01-13T07:18:26;94705.19;;;3.72;93.75
9676;BME280;4876;42.656;23.292;2023-01-13T07:20:57;94697.66;;;3.76;94.12
9676;BME280;4876;42.656;23.292;2023-01-13T07:23:28;94690.16;;;4.00;92.32
9676;BME280;4876;42.656;23.292;2023-01-13T07:25:55;94689.63;;;4.03;91.56
9676;BME280;4876;42.656;23.292;2023-01-13T07:28:22;94699.78;;;4.15;91.70
9676;BME280;4876;42.656;23.292;2023-01-13T07:30:49;94689.38;;;4.10;91.24
9676;BME280;4876;42.656;23.292;2023-01-13T07:33:16;94686.78;;;4.04;91.14
9676;BME280;4876;42.656;23.292;2023-01-13T07:35:43;94686.78;;;4.15;90.61
9676;BME280;4876;42.656;23.292;2023-01-13T07:38:10;94677.66;;;4.07;90.60
9676;BME280;4876;42.656;23.292;2023-01-13T07:40:39;94681.84;;;4.18;90.41
9676;BME280;4876;42.656;23.292;2023-01-13T07:43:07;94685.50;;;4.22;89.52
9676;BME280;4876;42.656;23.292;2023-01-13T07:46:06;94690.69;;;4.27;89.77
9676;BME280;4876;42.656;23.292;2023-01-13T07:48:33;94693.81;;;4.29;90.23
9676;BME280;4876;42.656;23.292;2023-01-13T07:51:00;94690.69;;;4.27;89.67
9676;BME280;4876;42.656;23.292;2023-01-13T07:53:27;94700.56;;;4.41;88.30
9676;BME280;4876;42.656;23.292;2023-01-13T07:55:56;94697.69;;;4.22;89.96
9676;BME280;4876;42.656;23.292;2023-01-13T07:58:23;94698.25;;;4.29;90.29
9676;BME280;4876;42.656;23.292;2023-01-13T08:00:50;94702.91;;;4.22;89.59
9676;BME280;4876;42.656;23.292;2023-01-13T08:03:17;94699.78;;;3.99;90.48
9676;BME280;4876;42.656;23.292;2023-01-13T08:05:44;94699.53;;;4.26;90.21
9676;BME280;4876;42.656;23.292;2023-01-13T08:08:11;94684.97;;;4.25;89.07
9676;BME280;4876;42.656;23.292;2023-01-13T08:10:38;94702.66;;;4.44;88.92
9676;BME280;4876;42.656;23.292;2023-01-13T08:13:09;94709.94;;;4.52;87.99
9676;BME280;4876;42.656;23.292;2023-01-13T08:15:47;94709.41;;;4.45;88.58
9676;BME280;4876;42.656;23.292;2023-01-13T08:18:14;94697.97;;;4.51;88.15
9676;BME280;4876;42.656;23.292;2023-01-13T08:20:44;94709.38;;;4.75;86.99
9676;BME280;4876;42.656;23.292;2023-01-13T08:23:11;94707.31;;;4.72;86.03
9676;BME280;4876;42.656;23.292;2023-01-13T08:25:37;94702.06;;;4.82;86.55
9676;BME280;4876;42.656;23.292;2023-01-13T08:28:04;94708.38;;;4.66;84.94
9676;BME280;4876;42.656;23.292;2023-01-13T08:30:32;94706.50;;;4.82;84.79
9676;BME280;4876;42.656;23.292;2023-01-13T08:32:59;94711.72;;;4.72;85.25
9676;BME280;4876;42.656;23.292;2023-01-13T08:35:26;94702.38;;;4.45;85.27
9676;BME280;4876;42.656;23.292;2023-01-13T08:37:53;94707.06;;;4.69;86.91
9676;BME280;4876;42.656;23.292;2023-01-13T08:40:20;94704.44;;;4.69;87.36
9676;BME280;4876;42.656;23.292;2023-01-13T08:42:46;94712.00;;;4.70;86.75
9676;BME280;4876;42.656;23.292;2023-01-13T08:45:13;94705.19;;;4.95;85.74
9676;BME280;4876;42.656;23.292;2023-01-13T08:47:41;94699.50;;;4.72;85.65
9676;BME280;4876;42.656;23.292;2023-01-13T08:50:09;94699.50;;;4.62;85.33
9676;BME280;4876;42.656;23.292;2023-01-13T08:52:36;94700.03;;;4.64;85.39
9676;BME280;4876;42.656;23.292;2023-01-13T08:55:04;94697.97;;;4.61;86.36
9676;BME280;4876;42.656;23.292;2023-01-13T08:57:31;94701.06;;;4.68;85.84
9676;BME280;4876;42.656;23.292;2023-01-13T08:59:57;94703.13;;;4.71;85.95
9676;BME280;4876;42.656;23.292;2023-01-13T09:02:25;94694.47;;;4.96;85.60
9676;BME280;4876;42.656;23.292;2023-01-13T09:04:53;94707.19;;;5.18;84.81
9676;BME280;4876;42.656;23.292;2023-01-13T09:07:20;94701.44;;;5.21;83.04
9676;BME280;4876;42.656;23.292;2023-01-13T09:09:47;94700.81;;;5.50;82.76
9676;BME280;4876;42.656;23.292;2023-01-13T09:12:14;94701.41;;;5.36;82.19
9676;BME280;4876;42.656;23.292;2023-01-13T09:14:59;94698.34;;;5.74;81.08
9676;BME280;4876;42.656;23.292;2023-01-13T09:17:26;94696.34;;;5.55;80.68
9676;BME280;4876;42.656;23.292;2023-01-13T09:19:54;94698.84;;;5.76;79.99
9676;BME280;4876;42.656;23.292;2023-01-13T09:22:21;94699.78;;;5.90;78.93
9676;BME280;4876;42.656;23.292;2023-01-13T09:24:51;94640.25;;;5.58;78.38
9676;BME280;4876;42.656;23.292;2023-01-13T09:27:19;94695.09;;;5.97;77.12
9676;BME280;4876;42.656;23.292;2023-01-13T09:29:46;94700.28;;;6.02;77.28
9676;BME280;4876;42.656;23.292;2023-01-13T09:32:13;94679.53;;;5.77;77.15
9676;BME280;4876;42.656;23.292;2023-01-13T09:34:40;94697.16;;;5.51;79.41
9676;BME280;4876;42.656;23.292;2023-01-13T09:37:26;94698.28;;;5.34;79.80
9676;BME280;4876;42.656;23.292;2023-01-13T09:39:53;94689.69;;;5.29;80.59
9676;BME280;4876;42.656;23.292;2023-01-13T09:42:25;94696.63;;;5.54;79.46
9676;BME280;4876;42.656;23.292;2023-01-13T09:45:15;94701.47;;;5.71;78.42
9676;BME280;4876;42.656;23.292;2023-01-13T09:47:48;94696.03;;;5.67;79.20
9676;BME280;4876;42.656;23.292;2023-01-13T09:50:44;94693.16;;;5.68;77.86
9676;BME280;4876;42.656;23.292;2023-01-13T09:53:18;94693.84;;;5.84;77.84
9676;BME280;4876;42.656;23.292;2023-01-13T09:55:46;94686.25;;;5.88;77.88
9676;BME280;4876;42.656;23.292;2023-01-13T09:58:14;94684.88;;;6.01;77.73
9676;BME280;4876;42.656;23.292;2023-01-13T10:00:44;94686.69;;;6.05;77.29
9676;BME280;4876;42.656;23.292;2023-01-13T10:03:20;94672.31;;;6.08;77.33
9676;BME280;4876;42.656;23.292;2023-01-13T10:05:51;94669.22;;;6.35;76.19
9676;BME280;4876;42.656;23.292;2023-01-13T10:08:24;94676.66;;;6.52;75.38
9676;BME280;4876;42.656;23.292;2023-01-13T10:10:54;94669.81;;;6.56;74.84
9676;BME280;4876;42.656;23.292;2023-01-13T10:13:23;94673.81;;;6.48;74.63
9676;BME280;4876;42.656;23.292;2023-01-13T10:15:58;94670.38;;;6.53;75.02
9676;BME280;4876;42.656;23.292;2023-01-13T10:18:38;94669.13;;;6.45;75.29
9676;BME280;4876;42.656;23.292;2023-01-13T10:21:24;94670.00;;;6.35;75.11
9676;BME280;4876;42.656;23.292;2023-01-13T10:24:02;94664.34;;;6.28;75.38
9676;BME280;4876;42.656;23.292;2023-01-13T10:26:49;94667.47;;;6.25;75.32
9676;BME280;4876;42.656;23.292;2023-01-13T10:29:20;94647.22;;;6.12;75.55
9676;BME280;4876;42.656;23.292;2023-01-13T10:31:50;94663.81;;;6.26;75.49
9676;BME280;4876;42.656;23.292;2023-01-13T10:34:17;94660.09;;;6.32;75.25
9676;BME280;4876;42.656;23.292;2023-01-13T10:36:59;94656.81;;;6.51;75.59
9676;BME280;4876;42.656;23.292;2023-01-13T10:39:39;94659.94;;;6.53;74.43
9676;BME280;4876;42.656;23.292;2023-01-13T10:42:11;94651.97;;;6.05;77.15
9676;BME280;4876;42.656;23.292;2023-01-13T10:44:50;94652.81;;;5.95;75.21
9676;BME280;4876;42.656;23.292;2023-01-13T10:47:20;94648.72;;;5.84;74.28
9676;BME280;4876;42.656;23.292;2023-01-13T10:49:59;94652.59;;;5.86;74.86
9676;BME280;4876;42.656;23.292;2023-01-13T10:52:28;94653.41;;;5.82;75.17
9676;BME280;4876;42.656;23.292;2023-01-13T10:54:56;94636.84;;;5.62;76.15
9676;BME280;4876;42.656;23.292;2023-01-13T10:57:25;94654.72;;;5.84;76.17
9676;BME280;4876;42.656;23.292;2023-01-13T10:59:53;94642.13;;;5.97;75.01
9676;BME280;4876;42.656;23.292;2023-01-13T11:02:25;94644.16;;;6.05;74.15
9676;BME280;4876;42.656;23.292;2023-01-13T11:05:20;94633.56;;;5.91;75.25
9676;BME280;4876;42.656;23.292;2023-01-13T11:07:48;94637.06;;;6.10;74.60
9676;BME280;4876;42.656;23.292;2023-01-13T11:10:23;94644.22;;;5.94;76.12
9676;BME280;4876;42.656;23.292;2023-01-13T11:13:02;94633.06;;;5.84;75.57
9676;BME280;4876;42.656;23.292;2023-01-13T11:15:38;94632.56;;;5.77;76.07
9676;BME280;4876;42.656;23.292;2023-01-13T11:18:13;94628.06;;;5.92;76.45
9676;BME280;4876;42.656;23.292;2023-01-13T11:20:43;94629.13;;;5.81;77.01
9676;BME280;4876;42.656;23.292;2023-01-13T11:23:15;94630.53;;;6.08;75.92
9676;BME280;4876;42.656;23.292;2023-01-13T11:25:50;94625.13;;;5.99;75.56
9676;BME280;4876;42.656;23.292;2023-01-13T11:28:41;94629.50;;;6.09;75.84
9676;BME280;4876;42.656;23.292;2023-01-13T11:31:16;94631.31;;;6.08;75.99
9676;BME280;4876;42.656;23.292;2023-01-13T11:33:49;94626.22;;;5.93;76.77
9676;BME280;4876;42.656;23.292;2023-01-13T11:36:21;94626.59;;;5.71;77.46
9676;BME280;4876;42.656;23.292;2023-01-13T11:38:49;94620.34;;;5.72;77.84
9676;BME280;4876;42.656;23.292;2023-01-13T11:41:25;94615.50;;;5.89;77.32
9676;BME280;4876;42.656;23.292;2023-01-13T11:44:01;94616.22;;;5.66;77.42
9676;BME280;4876;42.656;23.292;2023-01-13T11:46:31;94616.25;;;5.56;78.26
9676;BME280;4876;42.656;23.292;2023-01-13T11:48:58;94616.75;;;5.63;78.62
9676;BME280;4876;42.656;23.292;2023-01-13T11:51:33;94614.94;;;6.03;77.08
9676;BME280;4876;42.656;23.292;2023-01-13T11:54:19;94618.34;;;5.98;76.31
9676;BME280;4876;42.656;23.292;2023-01-13T11:57:20;94614.09;;;6.36;74.73
9676;BME280;4876;42.656;23.292;2023-01-13T12:00:08;94598.16;;;6.09;75.65
9676;BME280;4876;42.656;23.292;2023-01-13T12:02:49;94610.59;;;6.22;76.05
9676;BME280;4876;42.656;23.292;2023-01-13T12:05:24;94604.38;;;6.13;75.96
9676;BME280;4876;42.656;23.292;2023-01-13T12:08:07;94599.53;;;6.30;76.08
9676;BME280;4876;42.656;23.292;2023-01-13T12:10:43;94606.19;;;6.17;76.41
9676;BME280;4876;42.656;23.292;2023-01-13T12:13:24;94596.59;;;6.08;77.07
9676;BME280;4876;42.656;23.292;2023-01-13T12:19:02;94604.31;;;6.23;78.12
9676;BME280;4876;42.656;23.292;2023-01-13T12:21:35;94593.75;;;5.65;79.29
9676;BME280;4876;42.656;23.292;2023-01-13T12:24:11;94600.28;;;5.67;79.90
9676;BME280;4876;42.656;23.292;2023-01-13T12:26:47;94599.41;;;5.77;80.28
9676;BME280;4876;42.656;23.292;2023-01-13T12:29:18;94567.59;;;5.75;79.39
9676;BME280;4876;42.656;23.292;2023-01-13T12:31:46;94597.63;;;6.12;79.02
9676;BME280;4876;42.656;23.292;2023-01-13T12:34:30;94593.41;;;6.16;78.29
9676;BME280;4876;42.656;23.292;2023-01-13T12:37:06;94598.56;;;6.21;77.65
9676;BME280;4876;42.656;23.292;2023-01-13T12:39:43;94601.13;;;6.55;77.17
9676;BME280;4876;42.656;23.292;2023-01-13T12:42:16;94601.22;;;6.69;76.24
9676;BME280;4876;42.656;23.292;2023-01-13T12:45:20;94605.69;;;6.68;76.47
9676;BME280;4876;42.656;23.292;2023-01-13T12:47:48;94604.19;;;6.86;74.93
9676;BME280;4876;42.656;23.292;2023-01-13T12:50:40;94604.03;;;6.78;74.55
9676;BME280;4876;42.656;23.292;2023-01-13T12:53:35;94607.19;;;6.98;73.86
9676;BME280;4876;42.656;23.292;2023-01-13T12:56:29;94602.72;;;6.75;74.88
9676;BME280;4876;42.656;23.292;2023-01-13T13:02:29;94604.22;;;6.57;74.17
9676;BME280;4876;42.656;23.292;2023-01-13T13:04:58;94603.34;;;6.67;74.27
9676;BME280;4876;42.656;23.292;2023-01-13T13:07:39;94606.78;;;6.86;74.35
9676;BME280;4876;42.656;23.292;2023-01-13T13:10:15;94608.78;;;6.94;73.76
9676;BME280;4876;42.656;23.292;2023-01-13T13:12:52;94604.56;;;6.98;73.71
9676;BME280;4876;42.656;23.292;2023-01-13T13:15:38;94608.44;;;7.01;73.90
9676;BME280;4876;42.656;23.292;2023-01-13T13:18:26;94622.13;;;7.17;72.50
9676;BME280;4876;42.656;23.292;2023-01-13T13:21:04;94614.00;;;6.70;72.88
9676;BME280;4876;42.656;23.292;2023-01-13T13:23:38;94618.59;;;6.60;73.94
9676;BME280;4876;42.656;23.292;2023-01-13T13:26:16;94605.72;;;6.63;74.86
9676;BME280;4876;42.656;23.292;2023-01-13T13:28:52;94621.16;;;6.36;75.08
9676;BME280;4876;42.656;23.292;2023-01-13T13:31:34;94615.84;;;6.70;73.67
9676;BME280;4876;42.656;23.292;2023-01-13T13:34:17;94619.13;;;6.57;73.79
9676;BME280;4876;42.656;23.292;2023-01-13T13:37:10;94616.31;;;6.24;73.89
9676;BME280;4876;42.656;23.292;2023-01-13T13:39:41;94620.38;;;6.35;74.25
9676;BME280;4876;42.656;23.292;2023-01-13T13:42:33;94622.63;;;6.18;75.23
9676;BME280;4876;42.656;23.292;2023-01-13T13:45:17;94626.81;;;6.14;74.86
9676;BME280;4876;42.656;23.292;2023-01-13T13:48:20;94619.34;;;6.02;75.89
9676;BME280;4876;42.656;23.292;2023-01-13T13:50:49;94622.63;;;6.18;75.88
9676;BME280;4876;42.656;23.292;2023-01-13T13:53:21;94623.84;;;6.26;74.89
9676;BME280;4876;42.656;23.292;2023-01-13T13:55:54;94625.97;;;6.24;75.27
9676;BME280;4876;42.656;23.292;2023-01-13T13:58:23;94622.19;;;6.40;75.47